createdAt,value
2018-01-02T09:13:28.072Z,20.2
2018-01-02T09:14:29.483Z,20.2
2018-01-02T09:15:50.980Z,20.1
2018-01-02T09:16:52.347Z,20.1
2018-01-02T09:18:13.838Z,20.1
2018-01-02T09:19:15.231Z,20.0
2018-01-02T09:20:36.713Z,20.7
2018-01-02T09:21:38.085Z,20.9
2018-01-02T09:22:59.568Z,20.6
2018-01-02T09:24:00.941Z,20.7
2018-01-02T09:25:22.439Z,21.9
2018-01-02T09:26:24.359Z,21.6
2018-01-02T09:27:45.849Z,21.3
2018-01-02T09:28:47.221Z,21.2
2018-01-02T09:30:08.736Z,21.2
2018-01-02T09:31:10.113Z,21.3
2018-01-02T09:32:31.632Z,21.1
2018-01-02T09:33:33.048Z,21.0
2018-01-02T09:34:55.537Z,21.0
2018-01-02T09:35:56.915Z,21.0
2018-01-02T09:37:18.443Z,21.0
2018-01-02T09:38:19.872Z,20.9
2018-01-02T09:39:41.338Z,21.0
2018-01-02T09:40:42.710Z,21.1
2018-01-02T09:42:05.242Z,21.1
2018-01-02T09:43:06.642Z,21.1
2018-01-02T09:44:08.029Z,21.2
2018-01-02T09:45:09.475Z,21.2
2018-01-02T09:46:10.832Z,21.1
2018-01-02T09:47:12.243Z,21.2
2018-01-02T09:48:13.642Z,21.3
2018-01-02T09:49:15.034Z,21.3
2018-01-02T09:50:16.432Z,21.3
2018-01-02T09:51:17.828Z,21.3
2018-01-02T09:52:19.214Z,21.4
2018-01-02T09:53:20.602Z,21.4
2018-01-02T09:54:21.995Z,21.4
2018-01-02T09:55:23.386Z,21.4
2018-01-02T09:56:24.785Z,21.5
2018-01-02T09:57:26.179Z,21.5
2018-01-02T09:58:27.562Z,21.4
2018-01-02T09:59:28.943Z,21.5
2018-01-02T10:00:30.322Z,21.5
2018-01-02T10:01:31.718Z,21.5
2018-01-02T10:02:33.107Z,21.6
2018-01-02T10:03:34.498Z,21.6
2018-01-02T10:04:35.894Z,21.6
2018-01-02T10:05:37.275Z,21.6
2018-01-02T10:06:38.694Z,21.6
2018-01-02T10:07:40.086Z,21.6
2018-01-02T10:08:41.498Z,21.6
2018-01-02T10:09:42.885Z,21.6
2018-01-02T10:10:44.327Z,21.6
2018-01-02T10:11:45.704Z,21.6
2018-01-02T10:12:47.093Z,21.6
2018-01-02T10:13:48.466Z,21.6
2018-01-02T10:14:49.846Z,21.6
2018-01-02T10:15:51.243Z,21.6
2018-01-02T10:16:52.620Z,21.6
2018-01-02T10:17:54.010Z,21.6
2018-01-02T10:18:55.392Z,21.6
2018-01-02T10:19:56.775Z,21.6
2018-01-02T10:20:58.179Z,21.7
2018-01-02T10:21:59.542Z,21.6
2018-01-02T10:23:00.931Z,21.6
2018-01-02T10:24:02.325Z,21.8
2018-01-02T10:25:03.709Z,21.6
2018-01-02T10:26:05.656Z,21.7
2018-01-02T10:27:07.082Z,21.7
2018-01-02T10:28:08.471Z,21.7
2018-01-02T10:29:09.850Z,21.6
2018-01-02T10:30:11.240Z,21.7
2018-01-02T10:31:12.626Z,21.7
2018-01-02T10:32:14.017Z,21.7
2018-01-02T10:33:15.409Z,21.7
2018-01-02T10:34:16.793Z,21.8
2018-01-02T10:35:18.169Z,21.8
2018-01-02T10:36:19.550Z,21.8
2018-01-02T10:37:20.935Z,21.8
2018-01-02T10:38:22.321Z,21.9
2018-01-02T10:39:23.707Z,21.7
2018-01-02T10:40:25.143Z,21.8
2018-01-02T10:41:26.525Z,21.8
2018-01-02T10:42:27.920Z,21.8
2018-01-02T10:43:29.309Z,21.7
2018-01-02T10:44:30.706Z,21.9
2018-01-02T10:45:32.115Z,21.8
2018-01-02T10:46:33.499Z,21.7
2018-01-02T10:47:34.889Z,21.8
2018-01-02T10:48:36.273Z,21.7
2018-01-02T10:49:37.667Z,21.9
2018-01-02T10:50:39.055Z,21.8
2018-01-02T10:51:40.449Z,21.8
2018-01-02T10:52:41.838Z,21.7
2018-01-02T10:53:43.230Z,21.8
2018-01-02T10:54:44.623Z,21.9
2018-01-02T10:55:46.005Z,21.8
2018-01-02T10:56:47.435Z,21.8
2018-01-02T10:57:48.805Z,21.8
2018-01-02T10:58:50.183Z,21.9
2018-01-02T10:59:51.567Z,21.9
2018-01-02T11:00:52.958Z,22.0
2018-01-02T11:01:54.343Z,21.9
2018-01-02T11:02:55.730Z,22.0
2018-01-02T11:03:57.122Z,22.0
2018-01-02T11:04:58.513Z,22.0
2018-01-02T11:05:59.899Z,22.0
2018-01-02T11:07:01.298Z,22.0
2018-01-02T11:08:02.691Z,22.0
2018-01-02T11:09:04.075Z,22.1
2018-01-02T11:10:05.495Z,22.1
2018-01-02T11:11:07.168Z,22.2
2018-01-02T11:12:08.525Z,22.1
2018-01-02T11:13:09.917Z,22.3
2018-01-02T11:14:11.306Z,22.2
2018-01-02T11:15:12.703Z,22.4
2018-01-02T11:16:14.101Z,22.3
2018-01-02T11:17:15.495Z,22.3
2018-01-02T11:18:16.878Z,22.4
2018-01-02T11:19:18.917Z,22.4
2018-01-02T11:20:20.294Z,22.3
2018-01-02T11:21:21.708Z,22.7
2018-01-02T11:22:23.066Z,22.9
2018-01-02T11:23:24.466Z,23.1
2018-01-02T11:24:25.860Z,23.1
2018-01-02T11:25:27.243Z,23.1
2018-01-02T11:26:28.644Z,23.0
2018-01-02T11:27:31.475Z,22.9
2018-01-02T11:28:32.909Z,22.9
2018-01-02T11:29:34.265Z,22.9
2018-01-02T11:30:35.659Z,22.9
2018-01-02T11:31:37.105Z,23.0
2018-01-02T11:32:38.502Z,23.2
2018-01-02T11:33:39.897Z,23.1
2018-01-02T11:34:41.295Z,23.2
2018-01-02T11:35:42.687Z,23.5
2018-01-02T11:36:44.081Z,23.9
2018-01-02T11:37:45.477Z,24.8
2018-01-02T11:38:46.870Z,25.5
2018-01-02T11:39:48.267Z,26.2
2018-01-02T11:40:49.662Z,26.7
2018-01-02T11:41:51.058Z,27.1
2018-01-02T11:42:52.450Z,27.4
2018-01-02T11:43:53.881Z,27.9
2018-01-02T11:44:55.275Z,27.3
2018-01-02T11:45:56.666Z,26.8
2018-01-02T11:46:58.068Z,26.4
2018-01-02T11:47:59.455Z,26.5
2018-01-02T11:49:00.853Z,26.5
2018-01-02T11:50:02.247Z,26.2
2018-01-02T11:51:03.644Z,25.7
2018-01-02T11:52:05.037Z,25.5
2018-01-02T11:53:06.432Z,25.6
2018-01-02T11:54:07.827Z,26.2
2018-01-02T11:55:09.224Z,25.8
2018-01-02T11:56:10.625Z,26.5
2018-01-02T11:57:12.055Z,27.2
2018-01-02T11:58:13.417Z,26.2
2018-01-02T11:59:14.810Z,25.3
2018-01-02T12:00:16.204Z,24.9
2018-01-02T12:01:17.584Z,24.6
2018-01-02T12:02:18.981Z,24.4
2018-01-02T12:03:20.371Z,24.2
2018-01-02T12:04:21.757Z,24.2
2018-01-02T12:05:23.141Z,24.0
2018-01-02T12:06:24.528Z,23.7
2018-01-02T12:07:26.057Z,23.6
2018-01-02T12:08:27.444Z,23.5
2018-01-02T12:09:28.830Z,23.3
2018-01-02T12:10:30.214Z,23.3
2018-01-02T12:11:31.608Z,23.2
2018-01-02T12:12:33.003Z,23.1
2018-01-02T12:13:34.380Z,23.1
2018-01-02T12:14:35.762Z,23.0
2018-01-02T12:15:37.149Z,23.0
2018-01-02T12:16:38.536Z,23.0
2018-01-02T12:17:39.927Z,23.0
2018-01-02T12:18:41.302Z,23.1
2018-01-02T12:19:42.702Z,23.0
2018-01-02T12:20:44.083Z,23.2
2018-01-02T12:21:45.460Z,23.1
2018-01-02T12:22:46.852Z,23.1
2018-01-02T12:23:48.233Z,23.2
2018-01-02T12:24:49.611Z,23.2
2018-01-02T12:25:51.002Z,23.2
2018-01-02T12:26:52.404Z,23.3
2018-01-02T12:27:53.791Z,23.1
2018-01-02T12:28:55.174Z,22.9
2018-01-02T12:29:56.567Z,22.9
2018-01-02T12:30:57.956Z,22.8
2018-01-02T12:31:59.335Z,22.9
2018-01-02T12:33:00.722Z,23.0
2018-01-02T12:34:02.125Z,23.0
2018-01-02T12:35:03.514Z,23.0
2018-01-02T12:36:04.909Z,23.1
2018-01-02T12:37:06.298Z,23.0
2018-01-02T12:38:07.690Z,23.0
2018-01-02T12:39:09.092Z,23.1
2018-01-02T12:40:10.498Z,23.0
2018-01-02T12:41:11.900Z,23.0
2018-01-02T12:42:13.299Z,23.1
2018-01-02T12:43:16.832Z,23.1
2018-01-02T12:44:18.248Z,23.1
2018-01-02T12:45:19.641Z,23.0
2018-01-02T12:46:21.098Z,23.0
2018-01-02T12:47:22.492Z,22.9
2018-01-02T12:48:23.883Z,22.9
2018-01-02T12:49:25.322Z,22.9
2018-01-02T12:50:26.662Z,22.9
2018-01-02T12:51:28.054Z,23.1
2018-01-02T12:52:29.446Z,23.1
2018-01-02T12:53:30.836Z,23.0
2018-01-02T12:54:32.237Z,22.9
2018-01-02T12:55:33.671Z,22.9
2018-01-02T12:56:35.031Z,23.0
2018-01-02T12:57:36.425Z,23.0
2018-01-02T12:58:37.818Z,23.1
2018-01-02T12:59:39.210Z,23.1
2018-01-02T13:00:40.606Z,23.0
2018-01-02T13:01:42.001Z,22.9
2018-01-02T13:02:43.384Z,22.9
2018-01-02T13:03:44.769Z,23.0
2018-01-02T13:04:46.153Z,23.0
2018-01-02T13:05:47.548Z,23.0
2018-01-02T13:06:50.700Z,23.1
2018-01-02T13:07:52.106Z,23.0
2018-01-02T13:08:53.494Z,23.0
2018-01-02T13:09:55.865Z,23.0
2018-01-02T13:10:57.247Z,22.9
2018-01-02T13:11:58.649Z,23.0
2018-01-02T13:13:00.035Z,22.9
2018-01-02T13:14:01.432Z,22.9
2018-01-02T13:15:02.828Z,23.0
2018-01-02T13:16:04.208Z,23.0
2018-01-02T13:17:05.597Z,23.1
2018-01-02T13:18:06.993Z,23.0
2018-01-02T13:19:08.382Z,23.1
2018-01-02T13:20:09.766Z,23.0
2018-01-02T13:21:11.151Z,23.0
2018-01-02T13:22:12.544Z,23.0
2018-01-02T13:23:13.930Z,23.1
2018-01-02T13:24:15.310Z,23.2
2018-01-02T13:25:16.701Z,23.1
2018-01-02T13:26:18.096Z,23.0
2018-01-02T13:27:19.486Z,22.9
2018-01-02T13:28:20.873Z,22.9
2018-01-02T13:29:22.254Z,22.9
2018-01-02T13:30:23.636Z,22.9
2018-01-02T13:31:25.037Z,22.9
2018-01-02T13:32:26.416Z,23.1
2018-01-02T13:33:27.802Z,23.0
2018-01-02T13:34:29.184Z,23.0
2018-01-02T13:35:30.572Z,23.2
2018-01-02T13:36:31.961Z,23.1
2018-01-02T13:37:35.950Z,23.2
2018-01-02T13:38:40.335Z,23.1
2018-01-02T13:39:41.723Z,23.0
2018-01-02T13:40:43.103Z,23.1
2018-01-02T13:41:44.490Z,23.2
2018-01-02T13:42:45.889Z,23.2
2018-01-02T13:43:47.288Z,23.1
2018-01-02T13:44:48.682Z,23.0
2018-01-02T13:45:50.080Z,23.1
2018-01-02T13:46:51.470Z,23.1
2018-01-02T13:47:52.872Z,23.2
2018-01-02T13:48:54.267Z,23.2
2018-01-02T13:49:55.646Z,23.1
2018-01-02T13:50:57.039Z,23.1
2018-01-02T13:51:58.430Z,23.1
2018-01-02T13:52:59.828Z,23.1
2018-01-02T13:54:01.219Z,23.0
2018-01-02T13:55:02.606Z,23.0
2018-01-02T13:56:04.001Z,22.9
2018-01-02T13:57:05.397Z,23.0
2018-01-02T13:58:06.799Z,23.0
2018-01-02T13:59:08.194Z,23.0
2018-01-02T14:00:09.593Z,23.0
2018-01-02T14:01:10.975Z,22.9
2018-01-02T14:02:12.357Z,22.9
2018-01-02T14:03:13.748Z,23.0
2018-01-02T14:04:15.143Z,23.0
2018-01-02T14:05:16.530Z,23.0
2018-01-02T14:06:17.923Z,23.0
2018-01-02T14:07:19.322Z,23.0
2018-01-02T14:08:20.718Z,23.0
2018-01-02T14:09:22.137Z,22.9
2018-01-02T14:10:23.506Z,23.0
2018-01-02T14:11:24.900Z,22.9
2018-01-02T14:12:26.279Z,22.9
2018-01-02T14:13:27.678Z,22.9
2018-01-02T14:14:29.081Z,22.9
2018-01-02T14:15:30.467Z,22.8
2018-01-02T14:16:31.860Z,22.8
2018-01-02T14:17:33.254Z,22.8
2018-01-02T14:18:34.643Z,22.9
2018-01-02T14:19:36.030Z,22.8
2018-01-02T14:20:37.418Z,22.9
2018-01-02T14:21:38.812Z,22.8
2018-01-02T14:22:40.202Z,22.9
2018-01-02T14:23:41.594Z,23.1
2018-01-02T14:24:42.988Z,23.2
2018-01-02T14:25:44.402Z,23.2
2018-01-02T14:26:45.781Z,23.2
2018-01-02T14:27:47.164Z,23.2
2018-01-02T14:28:48.554Z,23.2
2018-01-02T14:29:49.960Z,23.1
2018-01-02T14:30:51.353Z,23.2
2018-01-02T14:31:52.748Z,23.1
2018-01-02T14:32:54.130Z,23.1
2018-01-02T14:33:55.519Z,23.1
2018-01-02T14:34:56.902Z,23.0
2018-01-02T14:35:58.309Z,23.1
2018-01-02T14:36:59.693Z,23.0
2018-01-02T14:38:01.088Z,23.1
2018-01-02T14:39:02.481Z,23.0
2018-01-02T14:40:03.883Z,22.8
2018-01-02T14:41:05.279Z,23.0
2018-01-02T14:42:06.675Z,23.0
2018-01-02T14:43:08.088Z,23.2
2018-01-02T14:44:09.486Z,23.1
2018-01-02T14:45:10.869Z,23.1
2018-01-02T14:46:12.260Z,23.1
2018-01-02T14:47:13.679Z,23.1
2018-01-02T14:48:15.056Z,23.2
2018-01-02T14:49:16.435Z,23.1
2018-01-02T14:50:17.824Z,23.1
2018-01-02T14:51:19.217Z,23.1
2018-01-02T14:52:20.588Z,23.0
2018-01-02T14:53:21.986Z,23.1
2018-01-02T14:54:23.382Z,23.1
2018-01-02T14:55:24.763Z,23.1
2018-01-02T14:56:26.156Z,23.1
2018-01-02T14:57:27.539Z,23.0
2018-01-02T14:58:28.929Z,23.0
2018-01-02T14:59:30.328Z,23.0
2018-01-02T15:00:31.709Z,23.1
2018-01-02T15:01:33.098Z,23.1
2018-01-02T15:02:34.486Z,23.1
2018-01-02T15:03:35.866Z,23.0
2018-01-02T15:04:37.253Z,22.9
2018-01-02T15:05:38.652Z,22.9
2018-01-02T15:06:40.040Z,22.8
2018-01-02T15:07:43.301Z,22.9
2018-01-02T15:08:44.688Z,22.9
2018-01-02T15:09:46.073Z,22.8
2018-01-02T15:10:47.460Z,22.9
2018-01-02T15:11:48.837Z,22.8
2018-01-02T15:12:50.229Z,22.9
2018-01-02T15:13:51.614Z,22.8
2018-01-02T15:14:53.003Z,22.8
2018-01-02T15:15:54.391Z,22.8
2018-01-02T15:16:55.769Z,22.8
2018-01-02T15:17:57.165Z,22.9
2018-01-02T15:18:58.550Z,22.8
2018-01-02T15:19:59.936Z,22.8
2018-01-02T15:21:01.316Z,22.8
2018-01-02T15:22:02.697Z,22.8
2018-01-02T15:23:04.078Z,22.7
2018-01-02T15:24:05.464Z,22.8
2018-01-02T15:25:06.855Z,22.7
2018-01-02T15:26:08.243Z,22.7
2018-01-02T15:27:09.622Z,22.7
2018-01-02T15:28:11.003Z,22.7
2018-01-02T15:29:12.390Z,22.7
2018-01-02T15:30:13.780Z,22.6
2018-01-02T15:31:15.166Z,22.7
2018-01-02T15:32:16.555Z,22.6
2018-01-02T15:33:17.942Z,22.6
2018-01-02T15:34:19.315Z,22.5
2018-01-02T15:35:20.712Z,22.6
2018-01-02T15:36:22.096Z,22.6
2018-01-02T15:37:23.481Z,22.5
2018-01-02T15:38:24.866Z,22.6
2018-01-02T15:39:26.267Z,22.6
2018-01-02T15:40:27.657Z,22.7
2018-01-02T15:41:29.054Z,22.6
2018-01-02T15:42:30.441Z,22.6
2018-01-02T15:43:31.832Z,22.5
2018-01-02T15:44:33.213Z,22.6
2018-01-02T15:45:34.599Z,22.5
2018-01-02T15:46:35.992Z,22.5
2018-01-02T15:47:37.398Z,22.5
2018-01-02T15:48:38.765Z,22.5
2018-01-02T15:49:40.149Z,22.5
2018-01-02T15:50:41.529Z,22.5
2018-01-02T15:51:42.935Z,22.4
2018-01-02T15:52:44.329Z,22.5
2018-01-02T15:53:45.718Z,22.5
2018-01-02T15:54:47.116Z,22.5
2018-01-02T15:55:48.506Z,22.4
2018-01-02T15:56:49.891Z,22.5
2018-01-02T15:57:51.283Z,22.4
2018-01-02T15:58:52.654Z,22.4
2018-01-02T15:59:54.050Z,22.4
2018-01-02T16:00:55.454Z,22.4
2018-01-02T16:01:56.852Z,22.3
2018-01-02T16:02:58.243Z,22.4
2018-01-02T16:03:59.623Z,22.5
2018-01-02T16:05:01.003Z,22.5
2018-01-02T16:06:02.387Z,22.4
2018-01-02T16:07:03.777Z,22.5
2018-01-02T16:08:05.158Z,22.5
2018-01-02T16:09:06.549Z,22.4
2018-01-02T16:10:07.929Z,22.4
2018-01-02T16:11:09.323Z,22.3
2018-01-02T16:12:10.710Z,22.4
2018-01-02T16:13:12.090Z,22.4
2018-01-02T16:14:13.477Z,22.4
2018-01-02T16:15:14.874Z,22.3
2018-01-02T16:16:16.266Z,22.4
2018-01-02T16:17:17.667Z,22.4
2018-01-02T16:18:19.059Z,22.4
2018-01-02T16:19:20.448Z,22.4
2018-01-02T16:20:21.842Z,22.4
2018-01-02T16:21:23.225Z,22.4
2018-01-02T16:22:24.620Z,22.4
2018-01-02T16:23:26.021Z,22.4
2018-01-02T16:24:27.394Z,22.5
2018-01-02T16:25:28.798Z,22.5
2018-01-02T16:26:30.178Z,22.5
2018-01-02T16:27:31.570Z,22.5
2018-01-02T16:28:32.957Z,22.4
2018-01-02T16:29:34.342Z,22.3
2018-01-02T16:30:35.738Z,22.4
2018-01-02T16:31:37.127Z,22.4
2018-01-02T16:32:38.513Z,22.3
2018-01-02T16:33:39.893Z,22.4
2018-01-02T16:34:41.274Z,22.4
2018-01-02T16:35:42.670Z,22.4
2018-01-02T16:36:44.059Z,22.4
2018-01-02T16:37:45.451Z,22.5
2018-01-02T16:38:46.830Z,22.4
2018-01-02T16:39:48.207Z,22.4
2018-01-02T16:40:49.588Z,22.4
2018-01-02T16:41:50.982Z,22.4
2018-01-02T16:42:52.387Z,22.4
2018-01-02T16:43:53.775Z,22.4
2018-01-02T16:44:55.172Z,22.5
2018-01-02T16:45:56.546Z,22.5
2018-01-02T16:46:57.937Z,22.5
2018-01-02T16:47:59.319Z,22.4
2018-01-02T16:49:00.714Z,22.4
2018-01-02T16:50:02.091Z,22.4
2018-01-02T16:51:03.469Z,22.3
2018-01-02T16:52:04.850Z,22.4
2018-01-02T16:53:06.232Z,22.4
2018-01-02T16:54:07.618Z,22.3
2018-01-02T16:55:09.016Z,22.5
2018-01-02T16:56:10.400Z,22.3
2018-01-02T16:57:11.785Z,22.4
2018-01-02T16:58:13.166Z,22.4
2018-01-02T16:59:14.550Z,22.3
2018-01-02T17:00:15.934Z,22.3
2018-01-02T17:01:17.313Z,22.3
2018-01-02T17:02:18.714Z,22.4
2018-01-02T17:03:20.141Z,22.2
2018-01-02T17:04:21.476Z,22.3
2018-01-02T17:05:22.858Z,22.3
2018-01-02T17:06:24.242Z,22.3
2018-01-02T17:07:25.620Z,22.3
2018-01-02T17:08:27.004Z,22.3
2018-01-02T17:09:28.390Z,22.3
2018-01-02T17:10:29.763Z,22.3
2018-01-02T17:11:31.148Z,22.3
2018-01-02T17:12:32.533Z,22.2
2018-01-02T17:13:33.916Z,22.2
2018-01-02T17:14:35.304Z,22.2
2018-01-02T17:15:36.696Z,22.3
2018-01-02T17:16:38.064Z,22.3
2018-01-02T17:17:39.444Z,22.2
2018-01-02T17:18:40.825Z,22.3
2018-01-02T17:19:42.225Z,22.2
2018-01-02T17:20:43.612Z,22.2
2018-01-02T17:21:45.006Z,22.2
2018-01-02T17:22:46.632Z,22.3
2018-01-02T17:23:48.332Z,22.3
2018-01-02T17:24:50.051Z,22.3
2018-01-02T17:25:51.682Z,22.2
2018-01-02T17:26:53.342Z,22.3
2018-01-02T17:27:55.040Z,22.2
2018-01-02T17:28:56.800Z,22.2
2018-01-02T17:29:58.576Z,22.1
2018-01-02T17:31:00.271Z,22.2
2018-01-02T17:32:02.042Z,22.1
2018-01-02T17:33:03.752Z,22.1
2018-01-02T17:34:05.465Z,22.2
2018-01-02T17:35:07.113Z,22.2
2018-01-02T17:36:08.782Z,22.1
2018-01-02T17:37:10.454Z,22.2
2018-01-02T17:38:13.135Z,22.2
2018-01-02T17:39:14.911Z,22.1
2018-01-02T17:40:16.599Z,22.1
2018-01-02T17:41:18.220Z,22.2
2018-01-02T17:42:20.704Z,22.2
2018-01-02T17:43:22.366Z,22.1
2018-01-02T17:44:24.099Z,22.1
2018-01-02T17:45:25.643Z,22.1
2018-01-02T17:46:27.313Z,22.1
2018-01-02T17:47:28.887Z,22.1
2018-01-02T17:48:30.501Z,22.2
2018-01-02T17:49:32.015Z,22.1
2018-01-02T17:50:33.676Z,22.2
2018-01-02T17:51:35.202Z,22.2
2018-01-02T17:52:36.705Z,22.2
2018-01-02T17:53:38.239Z,22.2
2018-01-02T17:54:39.656Z,22.2
2018-01-02T17:55:41.072Z,22.2
2018-01-02T17:56:42.474Z,22.2
2018-01-02T17:57:43.890Z,22.2
2018-01-02T17:58:45.313Z,22.2
2018-01-02T17:59:46.773Z,22.1
2018-01-02T18:00:48.189Z,22.2
2018-01-02T18:01:49.611Z,22.1
2018-01-02T18:02:51.003Z,22.1
2018-01-02T18:03:52.393Z,22.2
2018-01-02T18:04:53.788Z,22.2
2018-01-02T18:05:55.202Z,22.2
2018-01-02T18:06:56.616Z,22.1
2018-01-02T18:07:58.007Z,22.1
2018-01-02T18:08:59.404Z,22.1
2018-01-02T18:10:00.795Z,22.1
2018-01-02T18:11:02.190Z,22.2
2018-01-02T18:12:03.579Z,22.2
2018-01-02T18:13:04.958Z,22.1
2018-01-02T18:14:06.337Z,22.2
2018-01-02T18:15:07.730Z,22.1
2018-01-02T18:16:09.122Z,22.2
2018-01-02T18:17:10.487Z,22.2
2018-01-02T18:18:11.873Z,22.1
2018-01-02T18:19:13.251Z,22.2
2018-01-02T18:20:14.634Z,22.1
2018-01-02T18:21:16.011Z,22.1
2018-01-02T18:22:17.387Z,22.1
2018-01-02T18:23:18.772Z,22.1
2018-01-02T18:24:20.158Z,22.2
2018-01-02T18:25:21.542Z,22.1
2018-01-02T18:26:22.913Z,22.1
2018-01-02T18:27:24.299Z,22.1
2018-01-02T18:28:25.684Z,22.2
2018-01-02T18:29:27.071Z,22.1
2018-01-02T18:30:28.455Z,22.1
2018-01-02T18:31:29.838Z,22.2
2018-01-02T18:32:31.225Z,22.1
2018-01-02T18:33:32.614Z,22.2
2018-01-02T18:34:34.004Z,22.2
2018-01-02T18:35:35.391Z,22.2
2018-01-02T18:36:36.784Z,22.1
2018-01-02T18:37:38.180Z,22.2
2018-01-02T18:38:39.573Z,22.1
2018-01-02T18:39:40.962Z,22.1
2018-01-02T18:40:42.348Z,22.1
2018-01-02T18:41:43.737Z,22.1
2018-01-02T18:42:45.132Z,22.1
2018-01-02T18:43:46.521Z,22.1
2018-01-02T18:44:47.911Z,22.0
2018-01-02T18:45:49.304Z,22.0
2018-01-02T18:46:50.695Z,22.1
2018-01-02T18:47:52.094Z,22.0
2018-01-02T18:48:53.481Z,22.1
2018-01-02T18:49:54.873Z,22.1
2018-01-02T18:50:56.277Z,22.1
2018-01-02T18:51:57.660Z,22.1
2018-01-02T18:52:59.051Z,22.1
2018-01-02T18:54:00.443Z,22.1
2018-01-02T18:55:01.831Z,22.1
2018-01-02T18:56:03.220Z,22.0
2018-01-02T18:57:04.608Z,22.1
2018-01-02T18:58:05.997Z,22.1
2018-01-02T18:59:07.396Z,22.0
2018-01-02T19:00:08.793Z,22.1
2018-01-02T19:01:10.202Z,22.0
2018-01-02T19:02:11.579Z,22.1
2018-01-02T19:03:12.968Z,22.0
2018-01-02T19:04:14.355Z,22.1
2018-01-02T19:05:15.745Z,22.1
2018-01-02T19:06:17.132Z,22.1
2018-01-02T19:07:18.526Z,22.0
2018-01-02T19:08:19.916Z,22.0
2018-01-02T19:09:21.306Z,22.0
2018-01-02T19:10:22.695Z,22.1
2018-01-02T19:11:24.085Z,22.1
2018-01-02T19:12:25.477Z,22.1
2018-01-02T19:13:26.866Z,22.1
2018-01-02T19:14:28.255Z,22.0
2018-01-02T19:15:29.652Z,22.1
2018-01-02T19:16:31.042Z,22.0
2018-01-02T19:17:32.432Z,22.1
2018-01-02T19:18:33.827Z,22.0
2018-01-02T19:19:35.215Z,22.1
2018-01-02T19:20:36.632Z,22.0
2018-01-02T19:21:37.998Z,22.0
2018-01-02T19:22:39.419Z,22.1
2018-01-02T19:23:40.801Z,22.1
2018-01-02T19:24:42.191Z,22.0
2018-01-02T19:25:43.584Z,22.1
2018-01-02T19:26:44.970Z,22.1
2018-01-02T19:27:46.362Z,22.0
2018-01-02T19:28:47.754Z,22.0
2018-01-02T19:29:49.149Z,22.0
2018-01-02T19:30:50.544Z,22.0
2018-01-02T19:31:51.937Z,21.9
2018-01-02T19:32:53.323Z,22.0
2018-01-02T19:33:54.967Z,22.0
2018-01-02T19:34:56.363Z,22.0
2018-01-02T19:35:57.752Z,22.0
2018-01-02T19:36:59.146Z,22.0
2018-01-02T19:38:00.532Z,22.0
2018-01-02T19:39:01.922Z,22.1
2018-01-02T19:40:03.322Z,22.0
2018-01-02T19:41:04.704Z,22.0
2018-01-02T19:42:06.107Z,22.1
2018-01-02T19:43:07.485Z,22.0
2018-01-02T19:44:08.878Z,22.0
2018-01-02T19:45:10.268Z,22.0
2018-01-02T19:46:11.656Z,22.0
2018-01-02T19:47:13.046Z,22.0
2018-01-02T19:48:14.437Z,22.1
2018-01-02T19:49:15.826Z,22.1
2018-01-02T19:50:17.218Z,22.0
2018-01-02T19:51:18.606Z,22.0
2018-01-02T19:52:19.992Z,21.9
2018-01-02T19:53:21.382Z,22.0
2018-01-02T19:54:22.772Z,22.0
2018-01-02T19:55:24.169Z,22.0
2018-01-02T19:56:25.560Z,22.0
2018-01-02T19:57:26.951Z,22.0
2018-01-02T19:58:28.344Z,22.0
2018-01-02T19:59:29.731Z,22.0
2018-01-02T20:00:31.127Z,22.0
2018-01-02T20:01:32.514Z,22.0
2018-01-02T20:02:33.907Z,22.0
2018-01-02T20:03:35.302Z,22.0
2018-01-02T20:04:36.693Z,22.0
2018-01-02T20:05:38.085Z,22.0
2018-01-02T20:06:39.477Z,22.0
2018-01-02T20:07:40.872Z,22.1
2018-01-02T20:08:42.254Z,22.0
2018-01-02T20:09:43.647Z,22.0
2018-01-02T20:10:45.039Z,22.0
2018-01-02T20:11:46.439Z,22.0
2018-01-02T20:12:47.828Z,22.0
2018-01-02T20:13:49.218Z,22.0
2018-01-02T20:14:50.610Z,22.0
2018-01-02T20:15:51.999Z,22.0
2018-01-02T20:16:53.444Z,22.0
2018-01-02T20:17:54.780Z,22.0
2018-01-02T20:18:56.167Z,21.9
2018-01-02T20:19:57.559Z,22.0
2018-01-02T20:20:58.949Z,21.9
2018-01-02T20:22:00.341Z,22.0
2018-01-02T20:23:01.744Z,22.0
2018-01-02T20:24:03.132Z,21.9
2018-01-02T20:25:04.521Z,21.9
2018-01-02T20:26:05.918Z,22.0
2018-01-02T20:27:07.311Z,21.9
2018-01-02T20:28:08.702Z,21.9
2018-01-02T20:29:10.090Z,21.9
2018-01-02T20:30:11.473Z,21.9
2018-01-02T20:31:12.861Z,21.9
2018-01-02T20:32:14.261Z,21.9
2018-01-02T20:33:15.643Z,21.9
2018-01-02T20:34:17.036Z,21.9
2018-01-02T20:35:18.412Z,22.0
2018-01-02T20:36:19.791Z,22.0
2018-01-02T20:37:21.185Z,22.0
2018-01-02T20:38:22.574Z,21.9
2018-01-02T20:39:23.958Z,21.9
2018-01-02T20:40:25.341Z,22.0
2018-01-02T20:41:26.729Z,22.0
2018-01-02T20:42:28.112Z,21.9
2018-01-02T20:43:29.500Z,21.9
2018-01-02T20:44:30.881Z,21.9
2018-01-02T20:45:32.267Z,22.0
2018-01-02T20:46:33.648Z,21.9
2018-01-02T20:47:35.034Z,22.0
2018-01-02T20:48:36.420Z,21.9
2018-01-02T20:49:37.792Z,21.9
2018-01-02T20:50:39.186Z,21.9
2018-01-02T20:51:40.574Z,22.0
2018-01-02T20:52:41.975Z,21.9
2018-01-02T20:53:43.351Z,21.8
2018-01-02T20:54:44.730Z,21.9
2018-01-02T20:55:46.114Z,21.9
2018-01-02T20:56:47.504Z,21.9
2018-01-02T20:57:48.878Z,21.8
2018-01-02T20:58:50.252Z,21.9
2018-01-02T20:59:51.642Z,22.0
2018-01-02T21:00:53.019Z,21.9
2018-01-02T21:01:54.405Z,21.9
2018-01-02T21:02:55.780Z,21.9
2018-01-02T21:03:57.160Z,21.9
2018-01-02T21:04:58.551Z,21.9
2018-01-02T21:05:59.937Z,21.9
2018-01-02T21:07:01.309Z,21.9
2018-01-02T21:08:03.561Z,21.9
2018-01-02T21:09:06.737Z,21.9
2018-01-02T21:10:08.132Z,21.9
2018-01-02T21:11:09.512Z,21.9
2018-01-02T21:12:10.901Z,21.9
2018-01-02T21:13:12.290Z,21.9
2018-01-02T21:14:13.658Z,21.9
2018-01-02T21:15:15.043Z,21.9
2018-01-02T21:16:16.423Z,21.9
2018-01-02T21:17:17.808Z,21.9
2018-01-02T21:18:19.189Z,21.9
2018-01-02T21:19:20.567Z,21.9
2018-01-02T21:20:21.953Z,21.9
2018-01-02T21:21:23.332Z,21.9
2018-01-02T21:22:24.711Z,21.9
2018-01-02T21:23:26.099Z,21.9
2018-01-02T21:24:27.481Z,21.9
2018-01-02T21:25:28.859Z,21.9
2018-01-02T21:26:30.249Z,21.9
2018-01-02T21:27:31.641Z,21.9
2018-01-02T21:28:33.025Z,21.9
2018-01-02T21:29:34.414Z,21.9
2018-01-02T21:30:35.790Z,21.9
2018-01-02T21:31:37.175Z,21.9
2018-01-02T21:32:38.550Z,21.9
2018-01-02T21:33:39.933Z,21.9
2018-01-02T21:34:41.310Z,21.9
2018-01-02T21:35:42.689Z,21.8
2018-01-02T21:36:44.070Z,21.9
2018-01-02T21:37:45.451Z,21.8
2018-01-02T21:38:46.835Z,21.9
2018-01-02T21:39:48.220Z,21.9
2018-01-02T21:40:49.599Z,21.9
2018-01-02T21:41:50.990Z,21.9
2018-01-02T21:42:52.382Z,22.0
2018-01-02T21:43:53.762Z,21.8
2018-01-02T21:44:55.142Z,21.9
2018-01-02T21:45:56.524Z,21.8
2018-01-02T21:46:57.913Z,21.9
2018-01-02T21:47:59.301Z,21.9
2018-01-02T21:49:00.677Z,21.8
2018-01-02T21:50:02.063Z,21.9
2018-01-02T21:51:03.443Z,21.9
2018-01-02T21:52:04.823Z,21.9
2018-01-02T21:53:06.202Z,21.9
2018-01-02T21:54:07.593Z,21.9
2018-01-02T21:55:08.973Z,21.9
2018-01-02T21:56:10.350Z,21.8
2018-01-02T21:57:11.730Z,21.9
2018-01-02T21:58:13.118Z,21.9
2018-01-02T21:59:14.500Z,21.9
2018-01-02T22:00:15.895Z,21.9
2018-01-02T22:01:17.280Z,21.8
2018-01-02T22:02:18.661Z,21.7
2018-01-02T22:03:20.038Z,21.8
2018-01-02T22:04:21.422Z,21.8
2018-01-02T22:05:22.809Z,21.8
2018-01-02T22:06:24.190Z,21.8
2018-01-02T22:07:25.575Z,21.7
2018-01-02T22:08:26.956Z,21.8
2018-01-02T22:09:28.332Z,21.8
2018-01-02T22:10:29.701Z,21.8
2018-01-02T22:11:31.100Z,21.8
2018-01-02T22:12:32.469Z,21.8
2018-01-02T22:13:33.859Z,21.8
2018-01-02T22:14:35.240Z,21.9
2018-01-02T22:15:36.620Z,21.8
2018-01-02T22:16:38.006Z,21.8
2018-01-02T22:17:39.391Z,21.8
2018-01-02T22:18:40.764Z,21.8
2018-01-02T22:19:42.150Z,21.8
2018-01-02T22:20:43.532Z,21.8
2018-01-02T22:21:44.918Z,21.8
2018-01-02T22:22:46.294Z,21.8
2018-01-02T22:23:47.677Z,21.8
2018-01-02T22:24:49.058Z,21.9
2018-01-02T22:25:50.450Z,21.8
2018-01-02T22:26:51.830Z,21.8
2018-01-02T22:27:53.210Z,21.8
2018-01-02T22:28:54.585Z,21.9
2018-01-02T22:29:55.970Z,21.9
2018-01-02T22:30:57.361Z,21.8
2018-01-02T22:31:58.741Z,21.7
2018-01-02T22:33:00.138Z,21.8
2018-01-02T22:34:01.508Z,21.8
2018-01-02T22:35:02.902Z,21.8
2018-01-02T22:36:04.294Z,21.8
2018-01-02T22:37:05.685Z,21.8
2018-01-02T22:38:07.076Z,21.9
2018-01-02T22:39:08.465Z,21.8
2018-01-02T22:40:09.858Z,21.7
2018-01-02T22:41:11.252Z,21.8
2018-01-02T22:42:12.642Z,21.7
2018-01-02T22:43:14.028Z,21.8
2018-01-02T22:44:15.418Z,21.8
2018-01-02T22:45:16.811Z,21.8
2018-01-02T22:46:18.196Z,21.9
2018-01-02T22:47:19.588Z,21.7
2018-01-02T22:48:20.988Z,21.8
2018-01-02T22:49:22.377Z,21.8
2018-01-02T22:50:23.769Z,21.8
2018-01-02T22:51:25.155Z,21.8
2018-01-02T22:52:26.545Z,21.8
2018-01-02T22:53:27.934Z,21.8
2018-01-02T22:54:29.321Z,21.9